Time;durP1;ratioP1;P1;durP2;ratioP2;P2;SDS_P1;SDS_P2;PMS_P1;PMS_P2;Temp;Humidity;BMP_temperature;BMP_pressure;BME280_temperature;BME280_humidity;BME280_pressure;Samples;Min_cycle;Max_cycle;Signal;HPM_P1;HPM_P2
2023/07/20 00:03:33;;;;;;;1.98;0.70;;;;;;;16.61;80.86;99303.63;10526776;28;20051;-76
2023/07/20 00:08:36;;;;;;;2.70;0.60;;;;;;;16.67;81.10;99305.03;10502075;28;20055;-75
2023/07/20 00:13:38;;;;;;;1.88;0.70;;;;;;;16.71;80.44;99313.44;10474907;28;20032;-75
2023/07/20 00:18:40;;;;;;;1.67;0.80;;;;;;;16.48;82.08;99311.19;10490056;28;20052;-76
2023/07/20 00:23:43;;;;;;;0.77;0.60;;;;;;;16.85;80.18;99309.06;10520882;28;20045;-76
2023/07/20 00:28:51;;;;;;;2.63;0.70;;;;;;;16.75;80.55;99306.00;10523409;28;20530;-76
2023/07/20 00:33:55;;;;;;;1.45;0.70;;;;;;;16.77;80.46;99307.25;10507519;28;20048;-76
2023/07/20 00:38:57;;;;;;;2.17;0.60;;;;;;;16.79;80.78;99312.44;10525624;28;20048;-76
2023/07/20 00:44:00;;;;;;;1.67;0.90;;;;;;;16.64;81.44;99307.66;10523937;28;20040;-75
2023/07/20 00:49:02;;;;;;;1.88;0.73;;;;;;;16.78;81.01;99308.88;10504155;28;20406;-76
2023/07/20 00:54:04;;;;;;;1.88;0.60;;;;;;;16.71;81.25;99305.13;10479437;28;20525;-75
2023/07/20 00:59:07;;;;;;;1.85;0.90;;;;;;;16.65;81.18;99309.25;10467084;28;20044;-75
2023/07/20 01:04:15;;;;;;;2.42;0.70;;;;;;;16.59;81.56;99309.53;10497952;28;20056;-75
2023/07/20 01:09:20;;;;;;;1.77;1.00;;;;;;;16.81;80.57;99308.16;10525135;28;20049;-76
2023/07/20 01:14:23;;;;;;;2.20;1.30;;;;;;;16.76;80.33;99302.88;10506678;28;20052;-75
2023/07/20 01:19:30;;;;;;;1.83;0.70;;;;;;;16.96;79.33;99311.31;10509848;28;20052;-75
2023/07/20 01:24:43;;;;;;;1.30;0.80;;;;;;;16.75;80.08;99304.03;10481811;28;20052;-75
2023/07/20 01:29:57;;;;;;;2.58;0.90;;;;;;;16.71;79.69;99310.66;10509028;28;20052;-76
2023/07/20 01:35:01;;;;;;;1.42;0.80;;;;;;;16.72;79.21;99320.56;10513038;28;20067;-75
2023/07/20 01:40:04;;;;;;;2.47;0.90;;;;;;;16.64;79.38;99313.19;10483845;28;20041;-75
2023/07/20 01:45:07;;;;;;;0.88;0.77;;;;;;;16.78;77.95;99319.94;10507796;28;20036;-75
2023/07/20 01:50:10;;;;;;;1.23;0.90;;;;;;;16.69;78.45;99319.31;10529969;28;20044;-75
2023/07/20 01:55:12;;;;;;;1.10;0.80;;;;;;;16.78;77.35;99308.88;10469750;28;20045;-75
2023/07/20 02:00:15;;;;;;;1.10;0.70;;;;;;;16.92;76.60;99319.53;10519604;28;20051;-75
2023/07/20 02:05:17;;;;;;;0.63;0.63;;;;;;;16.77;77.61;99323.06;10521671;28;20059;-75
2023/07/20 02:10:20;;;;;;;0.80;0.70;;;;;;;16.78;76.95;99321.91;10498803;28;20387;-75
2023/07/20 02:15:22;;;;;;;1.38;0.70;;;;;;;16.73;76.88;99327.72;10512229;28;20036;-75
2023/07/20 02:20:27;;;;;;;1.98;0.55;;;;;;;16.70;77.38;99322.91;10511243;28;20063;-76
2023/07/20 02:25:54;;;;;;;0.77;0.68;;;;;;;16.70;77.56;99328.44;10511185;28;20399;-75
2023/07/20 02:30:57;;;;;;;1.95;0.82;;;;;;;17.01;76.68;99324.91;10529435;28;20052;-76
2023/07/20 02:36:04;;;;;;;1.02;0.70;;;;;;;16.91;77.00;99317.13;10500571;28;20061;-75
2023/07/20 02:41:06;;;;;;;2.80;0.70;;;;;;;16.99;76.62;99319.72;10523416;28;20064;-75
2023/07/20 02:46:09;;;;;;;0.65;0.65;;;;;;;17.14;76.36;99321.69;10512502;28;20041;-75
2023/07/20 02:51:12;;;;;;;1.58;0.60;;;;;;;17.13;76.53;99325.63;10530476;28;20051;-76
2023/07/20 02:56:15;;;;;;;1.00;0.90;;;;;;;17.18;76.17;99330.09;10508051;28;20503;-76
2023/07/20 03:01:22;;;;;;;2.70;0.90;;;;;;;17.18;75.88;99330.94;10527927;28;20047;-76
2023/07/20 03:06:25;;;;;;;1.35;0.70;;;;;;;17.09;76.29;99332.25;10529854;28;20041;-75
2023/07/20 03:11:27;;;;;;;2.08;0.80;;;;;;;17.01;76.46;99328.50;10526405;28;20057;-75
2023/07/20 03:16:34;;;;;;;0.90;0.60;;;;;;;16.93;76.54;99326.69;10511281;28;20067;-76
2023/07/20 03:21:40;;;;;;;1.85;0.73;;;;;;;16.91;76.83;99325.44;10507273;28;20070;-76
2023/07/20 03:26:44;;;;;;;2.10;0.75;;;;;;;16.89;77.03;99325.78;10508819;28;20056;-76
2023/07/20 03:31:47;;;;;;;1.35;0.82;;;;;;;16.95;76.16;99337.41;10503317;28;20079;-75
2023/07/20 03:36:49;;;;;;;0.70;0.70;;;;;;;17.05;76.39;99334.13;10524447;28;20037;-76
2023/07/20 03:41:51;;;;;;;1.90;0.73;;;;;;;17.11;76.07;99338.22;10508354;28;20414;-75
2023/07/20 03:46:53;;;;;;;1.48;0.70;;;;;;;17.02;76.08;99330.09;10520933;28;20039;-76
2023/07/20 03:51:55;;;;;;;0.85;0.80;;;;;;;17.58;74.47;99329.91;10493553;28;20053;-75
2023/07/20 03:56:58;;;;;;;0.98;0.80;;;;;;;18.07;72.56;99335.03;10520334;28;20036;-75
2023/07/20 04:02:01;;;;;;;3.13;1.52;;;;;;;19.25;69.79;99335.38;10479794;28;20059;-76
2023/07/20 04:07:04;;;;;;;3.40;1.33;;;;;;;20.37;65.33;99337.53;10507695;28;20040;-76
2023/07/20 04:12:07;;;;;;;3.58;1.70;;;;;;;20.92;63.74;99337.00;10525882;28;20041;-76
2023/07/20 04:17:12;;;;;;;2.50;1.40;;;;;;;20.09;66.13;99326.00;10524866;28;20530;-75
2023/07/20 04:22:17;;;;;;;2.25;1.05;;;;;;;20.45;65.02;99344.81;10504068;28;20045;-76
2023/07/20 04:27:24;;;;;;;1.95;0.85;;;;;;;20.06;65.27;99338.69;10493369;28;20418;-76
2023/07/20 04:32:27;;;;;;;0.47;0.47;;;;;;;19.47;67.81;99337.38;10520903;28;20399;-76
2023/07/20 04:37:34;;;;;;;2.63;0.90;;;;;;;19.16;69.34;99334.84;10507353;28;20063;-76
2023/07/20 04:42:38;;;;;;;1.70;0.90;;;;;;;19.26;69.39;99348.13;10505791;28;20056;-76
2023/07/20 04:47:40;;;;;;;0.93;0.57;;;;;;;19.45;68.40;99348.06;10504571;28;20054;-76
2023/07/20 04:52:42;;;;;;;1.20;0.65;;;;;;;19.57;67.41;99344.31;10495147;28;20415;-76
2023/07/20 04:57:44;;;;;;;0.73;0.65;;;;;;;19.16;68.92;99335.66;10492890;28;20089;-76
2023/07/20 05:02:48;;;;;;;0.65;0.65;;;;;;;19.33;68.61;99347.44;10491125;28;20045;-76
2023/07/20 05:07:51;;;;;;;2.35;0.98;;;;;;;19.79;66.52;99345.47;10498845;28;20032;-76
2023/07/20 05:12:53;;;;;;;0.90;0.80;;;;;;;20.04;66.64;99343.84;10490942;28;20040;-76
2023/07/20 05:17:56;;;;;;;0.80;0.75;;;;;;;19.47;67.11;99345.72;10514042;28;20033;-76
2023/07/20 05:22:59;;;;;;;0.68;0.60;;;;;;;19.33;68.18;99341.88;10503300;28;20037;-76
2023/07/20 05:28:03;;;;;;;0.73;0.57;;;;;;;19.25;68.77;99343.72;10522027;28;20046;-76
2023/07/20 05:33:05;;;;;;;1.75;0.70;;;;;;;19.68;68.14;99347.28;10522757;28;20052;-76
2023/07/20 05:38:07;;;;;;;0.60;0.60;;;;;;;20.57;63.95;99357.69;10494942;28;20055;-76
2023/07/20 05:43:10;;;;;;;0.82;0.60;;;;;;;19.82;66.83;99350.28;10520748;28;20044;-74
2023/07/20 05:48:13;;;;;;;2.67;0.88;;;;;;;20.47;65.37;99348.00;10524457;28;20044;-75
2023/07/20 05:53:15;;;;;;;1.63;0.70;;;;;;;20.44;65.10;99345.19;10517439;28;20041;-75
2023/07/20 05:58:17;;;;;;;0.90;0.68;;;;;;;20.20;65.88;99357.59;10520128;28;20048;-75
2023/07/20 06:03:22;;;;;;;0.95;0.85;;;;;;;19.45;66.53;99353.63;10523218;28;20044;-74
2023/07/20 06:08:24;;;;;;;1.38;0.75;;;;;;;19.66;66.28;99353.22;10522881;28;20509;-74
2023/07/20 06:13:26;;;;;;;3.15;0.80;;;;;;;20.58;64.42;99353.72;10521372;28;20056;-74
2023/07/20 06:18:28;;;;;;;3.53;0.85;;;;;;;19.60;66.85;99351.91;10501184;28;20064;-74
2023/07/20 06:23:31;;;;;;;2.20;0.82;;;;;;;19.34;68.76;99362.97;10525084;28;20044;-74
2023/07/20 06:28:33;;;;;;;0.93;0.73;;;;;;;20.17;65.15;99366.72;10526805;28;20048;-75
2023/07/20 06:33:35;;;;;;;1.27;0.77;;;;;;;21.06;60.72;99371.41;10525807;28;20036;-75
2023/07/20 06:38:38;;;;;;;0.68;0.68;;;;;;;22.12;58.27;99372.75;10521543;28;20048;-75
2023/07/20 06:43:45;;;;;;;1.02;0.70;;;;;;;23.23;54.78;99371.22;10528778;28;20052;-75
2023/07/20 06:48:48;;;;;;;1.38;0.93;;;;;;;21.93;58.24;99385.78;10508730;28;20067;-75
2023/07/20 06:53:50;;;;;;;1.38;0.98;;;;;;;22.22;56.87;99383.22;10523265;28;20048;-75
2023/07/20 06:58:52;;;;;;;2.50;0.73;;;;;;;21.09;59.11;99392.16;10510970;28;20055;-75
2023/07/20 07:03:54;;;;;;;1.52;0.90;;;;;;;20.93;59.38;99392.38;10514377;28;20452;-75
2023/07/20 07:08:56;;;;;;;2.08;0.70;;;;;;;21.47;58.61;99395.75;10525488;28;20036;-74
2023/07/20 07:13:59;;;;;;;0.63;0.55;;;;;;;20.95;58.78;99389.22;10526104;28;20033;-74
2023/07/20 07:19:01;;;;;;;3.05;1.27;;;;;;;22.17;55.74;99397.53;10527858;28;20036;-75
2023/07/20 07:24:03;;;;;;;2.00;0.90;;;;;;;23.34;54.11;99397.25;10508961;28;20715;-74
2023/07/20 07:29:05;;;;;;;2.28;0.77;;;;;;;21.74;54.81;99401.97;10528130;28;20040;-75
2023/07/20 07:34:08;;;;;;;2.53;0.95;;;;;;;20.88;58.42;99391.94;10524942;28;20048;-75
2023/07/20 07:39:10;;;;;;;2.72;0.68;;;;;;;22.21;55.62;99392.75;10517651;28;20422;-74
2023/07/20 07:44:12;;;;;;;1.50;0.60;;;;;;;24.01;49.24;99385.28;10520277;28;20040;-75
2023/07/20 07:49:15;;;;;;;1.70;0.70;;;;;;;24.94;46.31;99395.03;10525973;28;20055;-75
2023/07/20 07:54:17;;;;;;;1.35;0.73;;;;;;;24.73;46.93;99397.94;10508197;28;20048;-75
2023/07/20 07:59:19;;;;;;;0.65;0.65;;;;;;;26.04;44.76;99407.59;10506145;28;20078;-75
2023/07/20 08:04:21;;;;;;;1.23;0.52;;;;;;;26.88;42.70;99406.28;10491175;28;20071;-75
2023/07/20 08:09:23;;;;;;;1.50;0.60;;;;;;;24.61;47.28;99409.59;10523412;28;20048;-75
2023/07/20 08:14:25;;;;;;;3.17;0.70;;;;;;;23.10;51.03;99410.00;10526742;28;20037;-73
2023/07/20 08:19:27;;;;;;;1.55;0.60;;;;;;;22.44;53.79;99424.06;10518665;28;20044;-73
2023/07/20 08:24:30;;;;;;;1.55;0.80;;;;;;;23.55;50.33;99404.88;10524858;28;20421;-73
2023/07/20 08:29:32;;;;;;;1.85;0.60;;;;;;;24.29;49.64;99404.09;10525665;28;20062;-73
2023/07/20 08:34:34;;;;;;;2.42;0.93;;;;;;;25.31;45.27;99404.09;10525487;28;20044;-72
2023/07/20 08:39:36;;;;;;;4.65;0.65;;;;;;;25.19;46.80;99405.38;10523962;28;20055;-72
2023/07/20 08:44:39;;;;;;;1.50;0.60;;;;;;;24.35;47.82;99413.69;10525658;28;20056;-75
2023/07/20 08:49:41;;;;;;;2.63;0.57;;;;;;;24.60;47.47;99405.22;10494818;28;20055;-75
2023/07/20 08:54:43;;;;;;;2.97;0.85;;;;;;;25.08;47.54;99410.25;10498751;28;20049;-75
2023/07/20 08:59:46;;;;;;;0.93;0.65;;;;;;;23.95;50.05;99421.34;10466385;28;20052;-75
2023/07/20 09:04:48;;;;;;;1.45;0.85;;;;;;;23.76;49.69;99414.09;10501772;28;20052;-75
2023/07/20 09:09:50;;;;;;;1.67;0.80;;;;;;;24.20;48.56;99414.91;10507520;28;20059;-75
2023/07/20 09:14:52;;;;;;;1.90;0.65;;;;;;;23.44;48.30;99419.69;10503883;28;20052;-75
2023/07/20 09:19:54;;;;;;;1.95;0.70;;;;;;;23.14;46.97;99439.59;10524373;28;20044;-73
2023/07/20 09:24:58;;;;;;;1.90;0.70;;;;;;;23.74;47.59;99424.91;10507917;28;20041;-75
2023/07/20 09:30:00;;;;;;;1.67;0.80;;;;;;;23.69;47.61;99428.13;10498482;28;20060;-75
2023/07/20 09:35:02;;;;;;;1.35;0.68;;;;;;;22.47;48.92;99428.06;10467070;28;20049;-74
2023/07/20 09:40:06;;;;;;;1.50;0.63;;;;;;;21.42;53.39;99435.19;10484067;28;20044;-74
2023/07/20 09:45:09;;;;;;;1.90;0.73;;;;;;;21.01;53.65;99430.34;10450539;28;20036;-74
2023/07/20 09:50:11;;;;;;;2.97;0.60;;;;;;;21.00;53.29;99431.53;10484778;28;20048;-74
2023/07/20 09:55:13;;;;;;;1.00;0.68;;;;;;;20.99;52.82;99437.47;10491672;28;20408;-74
2023/07/20 10:00:16;;;;;;;0.95;0.63;;;;;;;20.91;52.48;99436.59;10492334;28;20487;-74
2023/07/20 10:05:19;;;;;;;1.42;0.75;;;;;;;20.99;53.11;99446.63;10508911;28;20053;-74
2023/07/20 10:10:21;;;;;;;2.85;0.82;;;;;;;21.01;53.21;99449.88;10500110;28;20091;-74
2023/07/20 10:15:34;;;;;;;0.90;0.60;;;;;;;20.55;53.60;99446.47;10530820;28;20039;-74
2023/07/20 10:20:39;;;;;;;1.92;0.88;;;;;;;20.38;54.31;99456.16;10529349;28;20517;-75
2023/07/20 10:25:42;;;;;;;0.70;0.60;;;;;;;20.57;53.50;99452.47;10531592;28;20063;-89
2023/07/20 10:30:45;;;;;;;3.17;0.75;;;;;;;20.65;53.88;99448.59;10497477;28;20123;-74
2023/07/20 10:35:55;;;;;;;0.60;0.60;;;;;;;20.85;52.22;99443.69;10505854;28;20426;-74
2023/07/20 10:40:58;;;;;;;1.58;0.55;;;;;;;20.92;51.20;99442.97;10523676;28;20048;-75
2023/07/20 10:46:00;;;;;;;0.90;0.55;;;;;;;20.82;51.64;99443.63;10518776;28;20045;-74
2023/07/20 10:51:15;;;;;;;0.75;0.57;;;;;;;20.69;52.06;99455.03;10507933;28;20051;-73
2023/07/20 10:56:21;;;;;;;2.65;0.50;;;;;;;20.54;53.08;99449.63;10526505;28;20664;-73
2023/07/20 11:01:28;;;;;;;0.67;0.47;;;;;;;20.53;53.10;99448.84;10510668;28;20060;-73
2023/07/20 11:06:32;;;;;;;0.65;0.60;;;;;;;20.46;54.10;99443.94;10507439;28;20029;-73
2023/07/20 11:11:36;;;;;;;2.97;0.70;;;;;;;20.54;53.98;99450.44;10506805;28;20049;-73
2023/07/20 11:16:46;;;;;;;0.50;0.40;;;;;;;20.70;53.39;99451.06;10524932;28;20143;-74
2023/07/20 11:21:51;;;;;;;2.90;1.15;;;;;;;20.92;53.74;99456.91;10514084;28;20040;-74
2023/07/20 11:26:54;;;;;;;0.80;0.70;;;;;;;20.68;55.06;99452.63;10509746;28;20040;-74
2023/07/20 11:31:56;;;;;;;1.35;0.70;;;;;;;20.74;54.34;99443.53;10501628;28;20033;-74
2023/07/20 11:36:59;;;;;;;1.00;0.52;;;;;;;20.61;53.74;99444.94;10516631;28;20059;-74
2023/07/20 11:42:01;;;;;;;1.70;0.68;;;;;;;20.68;53.64;99447.03;10482401;28;20041;-74
2023/07/20 11:47:12;;;;;;;0.82;0.70;;;;;;;20.60;52.02;99446.13;10487915;28;20048;-74
2023/07/20 11:52:15;;;;;;;0.85;0.60;;;;;;;20.49;53.50;99442.41;10507930;28;20052;-74
2023/07/20 11:57:21;;;;;;;2.70;0.93;;;;;;;20.60;53.71;99446.13;10570964;28;20036;-74
2023/07/20 12:02:26;;;;;;;1.10;0.55;;;;;;;20.65;51.77;99451.41;10570700;28;20039;-74
2023/07/20 12:07:28;;;;;;;0.68;0.40;;;;;;;20.56;51.98;99450.84;10535247;28;20052;-74
2023/07/20 12:12:35;;;;;;;3.45;0.98;;;;;;;20.62;52.31;99442.97;10513259;28;20047;-74
2023/07/20 12:17:42;;;;;;;1.20;0.83;;;;;;;20.55;52.18;99448.44;10509554;28;20079;-74
2023/07/20 12:22:44;;;;;;;0.73;0.50;;;;;;;20.68;52.30;99436.69;10545182;28;20466;-74
2023/07/20 12:27:47;;;;;;;1.45;0.55;;;;;;;20.73;51.74;99441.94;10555042;28;20035;-74
2023/07/20 12:32:50;;;;;;;3.25;0.85;;;;;;;21.05;50.28;99449.91;10530161;28;20039;-74
2023/07/20 12:37:53;;;;;;;0.60;0.60;;;;;;;20.77;51.39;99447.56;10527527;28;20053;-74
2023/07/20 12:42:55;;;;;;;0.57;0.57;;;;;;;20.49;50.93;99453.56;10506435;28;20044;-74
2023/07/20 12:47:57;;;;;;;3.25;0.70;;;;;;;20.64;51.07;99451.75;10525579;28;20064;-74
2023/07/20 12:52:59;;;;;;;1.02;0.60;;;;;;;20.69;49.92;99449.44;10527153;28;20063;-74
2023/07/20 12:58:01;;;;;;;0.98;0.57;;;;;;;20.56;50.35;99438.91;10526179;28;20047;-74
2023/07/20 13:03:04;;;;;;;1.40;0.80;;;;;;;20.36;49.37;99446.56;10522907;28;20084;-74
2023/07/20 13:08:07;;;;;;;1.73;1.00;;;;;;;20.21;49.17;99439.16;10518064;28;20040;-74
2023/07/20 13:13:09;;;;;;;4.28;0.70;;;;;;;20.25;48.27;99451.97;10535954;28;20136;-74
2023/07/20 13:18:11;;;;;;;0.95;0.63;;;;;;;20.39;48.43;99460.53;10541534;28;20446;-74
2023/07/20 13:23:13;;;;;;;0.52;0.47;;;;;;;20.42;49.94;99456.22;10529330;28;20513;-74
2023/07/20 13:28:15;;;;;;;2.30;0.50;;;;;;;20.55;49.61;99459.59;10515971;28;20041;-76
2023/07/20 13:33:18;;;;;;;1.00;0.52;;;;;;;20.49;49.46;99458.34;10517476;28;20502;-74
2023/07/20 13:38:20;;;;;;;2.38;0.80;;;;;;;20.26;51.03;99450.78;10534779;28;20040;-75
2023/07/20 13:43:22;;;;;;;1.00;0.77;;;;;;;20.37;51.29;99464.88;10523076;28;20044;-76
2023/07/20 13:48:24;;;;;;;1.50;0.70;;;;;;;20.04;53.24;99452.44;10536240;28;20502;-75
2023/07/20 13:53:27;;;;;;;0.77;0.70;;;;;;;20.08;53.78;99453.28;10568702;28;20044;-75
2023/07/20 13:58:30;;;;;;;0.95;0.80;;;;;;;20.07;53.79;99454.47;10533871;28;20044;-75
2023/07/20 14:03:32;;;;;;;3.00;0.85;;;;;;;19.86;54.60;99451.34;10533085;28;20515;-75
2023/07/20 14:08:34;;;;;;;1.73;0.70;;;;;;;19.95;54.49;99449.09;10542172;28;20047;-75
2023/07/20 14:13:36;;;;;;;2.38;0.80;;;;;;;20.18;53.45;99441.53;10575311;28;20482;-75
2023/07/20 14:18:38;;;;;;;3.15;0.70;;;;;;;20.25;51.78;99445.59;10574758;28;20043;-75
2023/07/20 14:23:40;;;;;;;1.48;0.70;;;;;;;20.17;51.59;99445.50;10575429;28;20504;-75
2023/07/20 14:28:42;;;;;;;2.33;0.55;;;;;;;20.16;53.49;99446.69;10574887;28;20050;-75
2023/07/20 14:33:45;;;;;;;1.98;0.50;;;;;;;20.12;52.76;99453.34;10556578;28;20052;-75
2023/07/20 14:38:47;;;;;;;1.65;0.70;;;;;;;19.81;52.79;99457.25;10573335;28;20056;-75
2023/07/20 14:43:49;;;;;;;4.68;1.00;;;;;;;19.78;53.99;99455.97;10562102;28;20479;-75
2023/07/20 14:48:51;;;;;;;2.03;0.90;;;;;;;19.81;54.37;99457.25;10551212;28;20541;-74
2023/07/20 14:53:54;;;;;;;2.05;0.77;;;;;;;19.69;54.04;99462.97;10513504;28;20525;-75
2023/07/20 14:58:57;;;;;;;2.75;0.70;;;;;;;19.44;54.47;99460.53;10531799;28;20056;-75
2023/07/20 15:04:00;;;;;;;0.95;0.50;;;;;;;19.25;52.40;99461.34;10532017;28;20044;-74
2023/07/20 15:09:03;;;;;;;3.05;0.68;;;;;;;19.17;53.56;99472.72;10531222;28;20032;-75
2023/07/20 15:14:05;;;;;;;1.70;0.60;;;;;;;19.30;54.23;99465.81;10531708;28;20055;-74
2023/07/20 15:19:09;;;;;;;2.35;0.77;;;;;;;19.17;53.77;99464.38;10512942;28;20044;-75
2023/07/20 15:24:11;;;;;;;1.92;0.45;;;;;;;19.03;54.59;99464.09;10530950;28;20051;-74
2023/07/20 15:29:13;;;;;;;3.20;0.50;;;;;;;19.01;55.18;99464.44;10512602;28;20441;-74
2023/07/20 15:34:15;;;;;;;1.23;0.65;;;;;;;18.94;55.34;99458.75;10530029;28;20043;-74
2023/07/20 15:39:17;;;;;;;0.77;0.50;;;;;;;19.07;55.13;99457.41;10529741;28;20040;-74
2023/07/20 15:44:20;;;;;;;0.63;0.40;;;;;;;18.86;55.85;99460.56;10529259;28;20059;-75
2023/07/20 15:49:22;;;;;;;4.65;0.70;;;;;;;18.79;56.71;99477.09;10530054;28;20142;-75
2023/07/20 15:54:24;;;;;;;1.10;0.80;;;;;;;18.74;58.15;99479.34;10528420;28;20050;-74
2023/07/20 15:59:26;;;;;;;1.27;0.80;;;;;;;18.67;59.11;99471.66;10528608;28;20423;-74
2023/07/20 16:04:30;;;;;;;0.70;0.70;;;;;;;18.56;59.58;99478.94;10528500;28;20044;-74
2023/07/20 16:09:34;;;;;;;0.52;0.50;;;;;;;18.53;59.99;99479.66;10528390;28;20060;-75
2023/07/20 16:14:36;;;;;;;2.80;0.50;;;;;;;18.39;60.63;99488.47;10528128;28;20525;-75
2023/07/20 16:19:38;;;;;;;1.23;0.50;;;;;;;18.36;60.83;99469.75;10527882;28;20048;-74
2023/07/20 16:24:40;;;;;;;3.58;0.80;;;;;;;18.41;61.15;99490.91;10527940;28;20044;-75
2023/07/20 16:29:42;;;;;;;5.18;2.03;;;;;;;18.37;61.03;99491.59;10510666;28;20043;-75
2023/07/20 16:34:45;;;;;;;2.70;1.10;;;;;;;18.20;61.98;99489.22;10560895;28;20510;-75
2023/07/20 16:39:50;;;;;;;0.85;0.70;;;;;;;18.18;62.45;99496.28;10569745;28;20048;-74
2023/07/20 16:44:52;;;;;;;2.70;0.70;;;;;;;18.07;64.10;99490.50;10569628;28;20047;-74
2023/07/20 16:49:54;;;;;;;1.40;0.60;;;;;;;18.12;63.66;99492.19;10568668;28;20066;-75
2023/07/20 16:54:56;;;;;;;0.93;0.70;;;;;;;18.06;63.46;99492.47;10563990;28;20386;-74
2023/07/20 16:59:59;;;;;;;0.65;0.65;;;;;;;18.10;64.20;99483.41;10524655;28;20040;-74
2023/07/20 17:05:01;;;;;;;2.05;0.75;;;;;;;17.92;65.06;99489.34;10522471;28;20495;-75
2023/07/20 17:10:03;;;;;;;1.30;0.65;;;;;;;18.11;65.32;99498.91;10526856;28;20052;-75
2023/07/20 17:15:06;;;;;;;0.80;0.55;;;;;;;17.81;66.46;99493.00;10526293;28;20483;-75
2023/07/20 17:20:12;;;;;;;0.88;0.57;;;;;;;17.77;66.33;99499.25;10509316;28;20537;-75
2023/07/20 17:25:14;;;;;;;3.30;0.77;;;;;;;17.61;66.83;99490.09;10526683;28;20055;-74
2023/07/20 17:30:17;;;;;;;0.60;0.50;;;;;;;17.52;66.10;99500.53;10526629;28;20470;-74
2023/07/20 17:35:20;;;;;;;1.45;0.70;;;;;;;17.46;66.74;99499.19;10508637;28;20041;-75
2023/07/20 17:40:23;;;;;;;1.25;0.73;;;;;;;17.39;66.97;99510.91;10526290;28;20138;-74
2023/07/20 17:45:25;;;;;;;2.65;0.70;;;;;;;17.35;66.58;99495.31;10526699;28;20051;-75
2023/07/20 17:50:27;;;;;;;1.90;0.65;;;;;;;17.26;66.79;99498.25;10527066;28;20033;-75
2023/07/20 17:55:30;;;;;;;1.13;0.90;;;;;;;17.16;66.89;99494.00;10526272;28;20048;-75
2023/07/20 18:00:32;;;;;;;1.15;0.57;;;;;;;17.16;65.73;99491.22;10526181;28;20151;-74
2023/07/20 18:05:34;;;;;;;1.13;0.60;;;;;;;17.10;65.88;99491.84;10507986;28;20040;-75
2023/07/20 18:10:36;;;;;;;0.90;0.70;;;;;;;17.08;65.91;99489.44;10526482;28;20044;-75
2023/07/20 18:15:38;;;;;;;1.45;0.90;;;;;;;17.18;65.64;99493.66;10532816;28;20047;-75
2023/07/20 18:20:40;;;;;;;0.63;0.52;;;;;;;17.39;65.35;99490.69;10512813;28;20418;-75
2023/07/20 18:25:43;;;;;;;3.17;0.80;;;;;;;17.25;64.93;99482.78;10532147;28;20036;-75
2023/07/20 18:30:45;;;;;;;1.33;0.63;;;;;;;17.04;65.78;99487.72;10514617;28;20099;-75
2023/07/20 18:35:48;;;;;;;1.15;0.77;;;;;;;16.94;66.48;99483.47;10555950;28;20055;-75
2023/07/20 18:40:50;;;;;;;2.28;0.82;;;;;;;16.97;66.69;99493.03;10516805;28;20059;-75
2023/07/20 18:45:53;;;;;;;0.82;0.70;;;;;;;16.90;67.26;99479.81;10518386;28;20040;-74
2023/07/20 18:50:56;;;;;;;1.30;0.90;;;;;;;16.79;67.60;99487.78;10477241;28;20045;-75
2023/07/20 18:55:58;;;;;;;1.38;0.80;;;;;;;16.72;67.40;99492.31;10513965;28;20044;-75
2023/07/20 19:01:00;;;;;;;1.42;1.02;;;;;;;16.72;67.86;99486.78;10530885;28;20048;-74
2023/07/20 19:06:04;;;;;;;0.50;0.50;;;;;;;16.82;67.36;99495.41;10499804;28;20487;-75
2023/07/20 19:11:09;;;;;;;0.82;0.55;;;;;;;16.71;67.20;99497.06;10513301;28;20403;-75
2023/07/20 19:16:11;;;;;;;1.08;0.60;;;;;;;16.61;66.88;99497.50;10531177;28;20032;-75
2023/07/20 19:21:14;;;;;;;0.63;0.60;;;;;;;16.38;67.62;99485.31;10530645;28;20588;-76
2023/07/20 19:26:17;;;;;;;3.25;0.90;;;;;;;16.71;66.48;99491.53;10543495;28;20047;-76
2023/07/20 19:31:19;;;;;;;0.82;0.50;;;;;;;16.50;67.04;99496.38;10571985;28;20052;-75
2023/07/20 19:36:21;;;;;;;0.52;0.52;;;;;;;16.51;67.48;99493.25;10525816;28;20048;-75
2023/07/20 19:41:23;;;;;;;1.25;0.80;;;;;;;16.54;67.50;99492.56;10528813;28;20068;-74
2023/07/20 19:46:25;;;;;;;2.42;0.70;;;;;;;16.43;68.17;99505.25;10530614;28;20559;-75
2023/07/20 19:51:27;;;;;;;1.02;0.60;;;;;;;16.51;67.86;99493.25;10543329;28;20177;-75
2023/07/20 19:56:29;;;;;;;0.55;0.55;;;;;;;16.32;68.53;99500.56;10529902;28;20044;-75
2023/07/20 20:01:32;;;;;;;3.28;0.90;;;;;;;16.94;67.40;99504.84;10528332;28;20044;-75
2023/07/20 20:06:34;;;;;;;2.28;0.68;;;;;;;16.80;68.18;99496.91;10531719;28;20067;-75
2023/07/20 20:11:36;;;;;;;0.65;0.57;;;;;;;16.56;69.54;99500.50;10528089;28;20048;-76
2023/07/20 20:16:38;;;;;;;1.85;1.02;;;;;;;16.91;69.13;99498.03;10531902;28;20040;-75
2023/07/20 20:21:40;;;;;;;2.38;0.80;;;;;;;17.01;69.32;99503.09;10510504;28;20498;-75
2023/07/20 20:26:43;;;;;;;0.73;0.60;;;;;;;17.00;69.79;99493.13;10527499;28;20049;-75
2023/07/20 20:31:45;;;;;;;1.25;0.60;;;;;;;16.86;70.71;99493.56;10528698;28;20045;-76
2023/07/20 20:36:47;;;;;;;1.58;0.70;;;;;;;16.83;70.93;99498.97;10527502;28;20055;-75
2023/07/20 20:41:50;;;;;;;1.55;0.85;;;;;;;16.59;71.63;99506.16;10527665;28;20060;-75
2023/07/20 20:47:00;;;;;;;1.35;0.70;;;;;;;16.59;71.97;99505.34;10527201;28;20039;-76
2023/07/20 20:52:02;;;;;;;0.63;0.60;;;;;;;16.57;71.69;99504.91;10510418;28;20397;-76
2023/07/20 20:57:05;;;;;;;2.20;0.88;;;;;;;16.69;71.61;99496.59;10527122;28;20044;-76
2023/07/20 21:02:07;;;;;;;1.00;0.68;;;;;;;16.52;71.92;99510.69;10523761;28;20040;-75
2023/07/20 21:07:09;;;;;;;0.70;0.70;;;;;;;16.51;71.68;99507.09;10526916;28;20326;-75
2023/07/20 21:12:11;;;;;;;0.82;0.60;;;;;;;16.70;72.11;99511.25;10522672;28;20037;-75
2023/07/20 21:17:13;;;;;;;1.17;0.77;;;;;;;16.45;72.58;99516.78;10506157;28;20064;-74
2023/07/20 21:22:15;;;;;;;0.75;0.63;;;;;;;16.29;72.83;99524.19;10508291;28;20398;-75
2023/07/20 21:27:18;;;;;;;2.00;0.82;;;;;;;16.33;72.67;99525.13;10518222;28;20041;-74
2023/07/20 21:32:20;;;;;;;1.73;0.60;;;;;;;16.17;72.77;99521.44;10525372;28;20410;-75
2023/07/20 21:37:22;;;;;;;1.15;0.55;;;;;;;16.14;73.50;99522.94;10526748;28;20086;-75
2023/07/20 21:42:25;;;;;;;3.20;0.68;;;;;;;16.14;73.52;99522.94;10500403;28;20040;-74
2023/07/20 21:47:27;;;;;;;0.70;0.70;;;;;;;16.24;73.56;99525.22;10523102;28;20502;-75
2023/07/20 21:52:29;;;;;;;2.35;1.10;;;;;;;16.57;72.24;99527.84;10516124;28;20048;-74
2023/07/20 21:57:31;;;;;;;0.60;0.60;;;;;;;16.46;72.86;99521.16;10534152;28;20048;-74
2023/07/20 22:02:33;;;;;;;0.80;0.65;;;;;;;16.28;73.89;99517.84;10533208;28;20414;-75
2023/07/20 22:07:35;;;;;;;3.42;0.68;;;;;;;16.16;74.61;99517.06;10533197;28;20051;-75
2023/07/20 22:12:37;;;;;;;1.30;0.90;;;;;;;16.06;75.25;99515.53;10531872;28;20502;-75
2023/07/20 22:17:40;;;;;;;2.00;1.00;;;;;;;15.89;76.17;99513.78;10525811;28;20041;-75
2023/07/20 22:22:43;;;;;;;1.58;0.82;;;;;;;15.91;76.24;99511.47;10513931;28;20052;-75
2023/07/20 22:27:45;;;;;;;1.70;0.63;;;;;;;16.22;74.95;99521.19;10513420;28;20051;-75
2023/07/20 22:32:47;;;;;;;3.17;1.17;;;;;;;16.15;75.19;99513.47;10514758;28;20055;-73
2023/07/20 22:37:51;;;;;;;1.02;0.90;;;;;;;16.00;75.93;99507.81;10531479;28;20040;-75
2023/07/20 22:42:53;;;;;;;1.33;0.65;;;;;;;15.88;76.70;99503.88;10513975;28;20036;-75
2023/07/20 22:47:56;;;;;;;1.67;0.65;;;;;;;16.15;75.87;99501.59;10532006;28;20040;-74
2023/07/20 22:52:58;;;;;;;0.90;0.70;;;;;;;16.09;76.20;99509.31;10531478;28;20521;-74
2023/07/20 22:58:01;;;;;;;0.88;0.50;;;;;;;16.00;77.13;99499.50;10530958;28;20048;-76
2023/07/20 23:03:03;;;;;;;1.77;0.93;;;;;;;16.09;76.10;99501.00;10531612;28;20048;-73
2023/07/20 23:08:05;;;;;;;1.30;0.80;;;;;;;16.31;74.99;99494.19;10530813;28;20044;-75
2023/07/20 23:13:08;;;;;;;1.27;0.70;;;;;;;16.34;74.81;99493.50;10530754;28;20040;-74
2023/07/20 23:18:11;;;;;;;2.65;0.80;;;;;;;16.27;75.19;99499.63;10530478;28;20051;-74
2023/07/20 23:23:13;;;;;;;1.67;0.80;;;;;;;16.27;75.22;99483.00;10530078;28;20048;-75
2023/07/20 23:28:15;;;;;;;2.72;0.82;;;;;;;15.95;76.59;99486.69;10529999;28;20044;-74